Terminal Aerodrome Forecast
Issued by NWS Pueblo, CO

Home | Current Version | Previous Version | Text Only | Print | Product List | Glossary On
Versions: 1 2 3 4 5 6 7 8 9 10 11 12 13 14 15 16 17 18 19 20 21 22
000
FTUS45 KPUB 251731
TAFCOS
TAF
KCOS 251731Z 2518/2618 15008KT P6SM SCT200
     FM252000 16014KT P6SM SCT140 BKN170
     FM260200 12008KT P6SM BKN140
     FM260600 03006KT P6SM BKN100
     FM260900 36008KT P6SM VCSH SCT060 OVC100
     FM261400 35012G22KT P6SM VCSH SCT050 OVC080=

USA.gov is the U.S. government's official web portal to all federal, state and local government web resources and services.